Wetterdaten: Woche 16.07.12 - 22.07.12 (KW29)
Datum Zeit Temperatur Luftfeuchte Luftdruck Niederschlag Windrichtung Sonnenschein Solar Wind
16.07.2012 00:00 11,1 C 94 % 1021,5 hPa 0,0 l/m W-SW 0,00 h 0 W/m 11,1 km/h (2 Bft)
16.07.2012 01:00 11,2 C 93 % 1022,0 hPa 0,0 l/m W-SW 0,00 h 0 W/m 15,3 km/h (3 Bft)
16.07.2012 02:00 11,2 C 91 % 1022,2 hPa 0,0 l/m W-SW 0,00 h 0 W/m 15,4 km/h (3 Bft)
16.07.2012 03:00 10,8 C 90 % 1022,4 hPa 0,0 l/m W-SW 0,00 h 0 W/m 13,3 km/h (3 Bft)
16.07.2012 04:00 10,7 C 91 % 1022,6 hPa 0,0 l/m W-SW 0,00 h 0 W/m 14,0 km/h (3 Bft)
16.07.2012 05:00 10,6 C 91 % 1023,2 hPa 0,0 l/m W-SW 0,00 h 5 W/m 12,8 km/h (3 Bft)
16.07.2012 06:00 10,8 C 91 % 1023,9 hPa 0,0 l/m W-SW 0,00 h 14 W/m 11,0 km/h (2 Bft)
16.07.2012 07:00 11,1 C 90 % 1024,5 hPa 0,0 l/m W-SW 0,00 h 55 W/m 10,7 km/h (2 Bft)
16.07.2012 08:00 12,1 C 86 % 1025,1 hPa 0,0 l/m W-SW 0,00 h 128 W/m 10,8 km/h (2 Bft)
16.07.2012 09:00 12,8 C 81 % 1025,5 hPa 0,0 l/m W 0,00 h 188 W/m 12,6 km/h (3 Bft)
16.07.2012 10:00 14,2 C 76 % 1025,5 hPa 0,0 l/m W 0,17 h 260 W/m 14,2 km/h (3 Bft)
16.07.2012 11:00 15,0 C 70 % 1025,5 hPa 0,0 l/m W-NW 0,17 h 295 W/m 13,7 km/h (3 Bft)
16.07.2012 12:00 15,1 C 69 % 1025,6 hPa 0,0 l/m W-NW 0,08 h 207 W/m 14,8 km/h (3 Bft)
16.07.2012 13:00 16,3 C 65 % 1025,5 hPa 0,0 l/m W 0,42 h 555 W/m 18,8 km/h (3 Bft)
16.07.2012 14:00 17,3 C 57 % 1025,1 hPa 0,0 l/m W 0,50 h 571 W/m 19,0 km/h (3 Bft)
16.07.2012 15:00 17,9 C 56 % 1024,8 hPa 0,0 l/m W-NW 0,42 h 508 W/m 16,5 km/h (3 Bft)
16.07.2012 16:00 18,7 C 52 % 1024,5 hPa 0,0 l/m W-SW 0,67 h 556 W/m 16,8 km/h (3 Bft)
16.07.2012 17:00 18,9 C 50 % 1024,3 hPa 0,0 l/m W 0,92 h 625 W/m 16,6 km/h (3 Bft)
16.07.2012 18:00 18,5 C 53 % 1024,0 hPa 0,0 l/m W 0,58 h 280 W/m 10,6 km/h (2 Bft)
16.07.2012 19:00 17,4 C 56 % 1023,9 hPa 0,0 l/m W-SW 0,33 h 141 W/m 11,5 km/h (2 Bft)
16.07.2012 20:00 15,7 C 66 % 1023,8 hPa 0,0 l/m W-SW 0,08 h 33 W/m 5,9 km/h (2 Bft)
16.07.2012 21:00 13,5 C 76 % 1024,0 hPa 0,0 l/m W-SW 0,00 h 6 W/m 4,7 km/h (1 Bft)
16.07.2012 22:00 13,4 C 75 % 1024,2 hPa 0,0 l/m W-SW 0,00 h 0 W/m 7,1 km/h (2 Bft)
16.07.2012 23:00 13,9 C 71 % 1024,1 hPa 0,0 l/m W-SW 0,00 h 0 W/m 9,8 km/h (2 Bft)
17.07.2012 00:00 14,4 C 67 % 1024,3 hPa 0,0 l/m W 0,00 h 0 W/m 11,6 km/h (2 Bft)
17.07.2012 01:00 14,3 C 70 % 1024,2 hPa 0,0 l/m W-SW 0,00 h 0 W/m 9,4 km/h (2 Bft)
17.07.2012 02:00 13,2 C 80 % 1023,9 hPa 0,0 l/m SW 0,00 h 0 W/m 9,9 km/h (2 Bft)
17.07.2012 03:00 12,9 C 82 % 1023,6 hPa 0,0 l/m SW 0,00 h 0 W/m 12,2 km/h (2 Bft)
17.07.2012 04:00 13,1 C 82 % 1023,3 hPa 0,0 l/m SW 0,00 h 0 W/m 11,4 km/h (2 Bft)
17.07.2012 05:00 13,3 C 79 % 1023,1 hPa 0,0 l/m W-SW 0,00 h 6 W/m 14,8 km/h (3 Bft)
17.07.2012 06:00 13,5 C 78 % 1023,0 hPa 0,0 l/m W-SW 0,00 h 23 W/m 15,3 km/h (3 Bft)
17.07.2012 07:00 13,8 C 78 % 1023,1 hPa 0,0 l/m W-SW 0,00 h 44 W/m 16,1 km/h (3 Bft)
17.07.2012 08:00 14,8 C 76 % 1023,3 hPa 0,0 l/m W-SW 0,17 h 182 W/m 17,7 km/h (3 Bft)
17.07.2012 09:00 16,0 C 73 % 1023,1 hPa 0,0 l/m W 0,42 h 356 W/m 26,3 km/h (4 Bft)
17.07.2012 10:00 17,2 C 70 % 1022,9 hPa 0,0 l/m W 0,08 h 240 W/m 24,5 km/h (4 Bft)
17.07.2012 11:00 18,6 C 64 % 1022,8 hPa 0,0 l/m W-NW 0,33 h 486 W/m 25,4 km/h (4 Bft)
17.07.2012 12:00 18,8 C 59 % 1023,0 hPa 0,0 l/m W-NW 0,00 h 264 W/m 26,0 km/h (4 Bft)
17.07.2012 13:00 19,5 C 58 % 1023,2 hPa 0,0 l/m W 0,25 h 459 W/m 21,7 km/h (4 Bft)
17.07.2012 14:00 20,4 C 57 % 1022,9 hPa 0,0 l/m W 0,33 h 547 W/m 23,6 km/h (4 Bft)
17.07.2012 15:00 20,7 C 55 % 1022,6 hPa 0,0 l/m W 0,75 h 715 W/m 25,1 km/h (4 Bft)
17.07.2012 16:00 20,6 C 53 % 1022,6 hPa 0,0 l/m W-NW 0,50 h 481 W/m 23,6 km/h (4 Bft)
17.07.2012 17:00 20,6 C 55 % 1022,5 hPa 0,0 l/m N-NW 0,42 h 361 W/m 17,4 km/h (3 Bft)
17.07.2012 18:00 20,1 C 56 % 1022,4 hPa 0,0 l/m N-NW 0,25 h 229 W/m 15,7 km/h (3 Bft)
17.07.2012 19:00 19,3 C 59 % 1022,6 hPa 0,0 l/m N-NW 0,42 h 131 W/m 13,2 km/h (3 Bft)
17.07.2012 20:00 18,1 C 64 % 1022,7 hPa 0,0 l/m NW 0,25 h 39 W/m 7,6 km/h (2 Bft)
17.07.2012 21:00 16,5 C 70 % 1023,0 hPa 0,0 l/m NW 0,00 h 7 W/m 6,3 km/h (2 Bft)
17.07.2012 22:00 14,8 C 79 % 1023,4 hPa 0,0 l/m NW 0,00 h 0 W/m 2,9 km/h (1 Bft)
17.07.2012 23:00 15,1 C 76 % 1023,5 hPa 0,0 l/m W-NW 0,00 h 0 W/m 8,6 km/h (2 Bft)
18.07.2012 00:00 15,2 C 77 % 1023,7 hPa 0,0 l/m W 0,00 h 0 W/m 6,7 km/h (2 Bft)
18.07.2012 01:00 15,5 C 77 % 1023,5 hPa 0,0 l/m W-SW 0,00 h 0 W/m 12,0 km/h (2 Bft)
18.07.2012 02:00 15,6 C 78 % 1023,0 hPa 0,0 l/m W-SW 0,00 h 0 W/m 14,6 km/h (3 Bft)
18.07.2012 03:00 15,8 C 77 % 1022,4 hPa 0,0 l/m W-SW 0,00 h 0 W/m 14,6 km/h (3 Bft)
18.07.2012 04:00 15,7 C 78 % 1021,7 hPa 0,0 l/m W-SW 0,00 h 0 W/m 12,2 km/h (2 Bft)
18.07.2012 05:00 15,3 C 82 % 1021,3 hPa 0,0 l/m W-SW 0,00 h 6 W/m 9,7 km/h (2 Bft)
18.07.2012 06:00 15,1 C 84 % 1020,8 hPa 0,0 l/m SW 0,00 h 31 W/m 6,0 km/h (2 Bft)
18.07.2012 07:00 15,8 C 83 % 1020,5 hPa 0,0 l/m W-SW 0,08 h 86 W/m 5,5 km/h (1 Bft)
18.07.2012 08:00 17,0 C 81 % 1020,1 hPa 0,0 l/m S 0,50 h 281 W/m 6,4 km/h (2 Bft)
18.07.2012 09:00 19,2 C 71 % 1019,5 hPa 0,0 l/m SW 1,00 h 513 W/m 12,0 km/h (2 Bft)
18.07.2012 10:00 20,6 C 66 % 1018,8 hPa 0,0 l/m SW 0,92 h 673 W/m 15,2 km/h (3 Bft)
18.07.2012 11:00 21,8 C 62 % 1018,0 hPa 0,0 l/m SW 1,00 h 789 W/m 17,8 km/h (3 Bft)
18.07.2012 12:00 23,2 C 60 % 1017,1 hPa 0,0 l/m SW 1,00 h 862 W/m 19,2 km/h (3 Bft)
18.07.2012 13:00 24,0 C 57 % 1016,4 hPa 0,0 l/m W-SW 1,00 h 898 W/m 19,8 km/h (4 Bft)
18.07.2012 14:00 24,8 C 54 % 1015,6 hPa 0,0 l/m W 1,00 h 896 W/m 20,9 km/h (4 Bft)
18.07.2012 15:00 24,1 C 55 % 1014,9 hPa 0,0 l/m W 0,08 h 304 W/m 17,7 km/h (3 Bft)
18.07.2012 16:00 25,3 C 49 % 1014,1 hPa 0,0 l/m W 0,75 h 590 W/m 20,6 km/h (4 Bft)
18.07.2012 17:00 25,8 C 41 % 1013,4 hPa 0,0 l/m W-SW 1,00 h 570 W/m 27,5 km/h (4 Bft)
18.07.2012 18:00 25,3 C 41 % 1012,7 hPa 0,0 l/m W 0,83 h 353 W/m 26,1 km/h (4 Bft)
18.07.2012 19:00 24,2 C 51 % 1012,3 hPa 0,0 l/m W-SW 0,50 h 168 W/m 19,2 km/h (3 Bft)
18.07.2012 20:00 22,8 C 60 % 1011,9 hPa 0,0 l/m W-SW 0,00 h 34 W/m 16,8 km/h (3 Bft)
18.07.2012 21:00 21,2 C 67 % 1011,7 hPa 0,0 l/m SW 0,00 h 5 W/m 9,6 km/h (2 Bft)
18.07.2012 22:00 19,8 C 74 % 1011,9 hPa 0,0 l/m W-SW 0,00 h 0 W/m 7,8 km/h (2 Bft)
18.07.2012 23:00 19,0 C 76 % 1011,8 hPa 0,0 l/m W-SW 0,00 h 0 W/m 8,4 km/h (2 Bft)
19.07.2012 00:00 17,6 C 81 % 1011,6 hPa 0,0 l/m W-SW 0,00 h 0 W/m 4,7 km/h (1 Bft)
19.07.2012 01:00 15,7 C 87 % 1010,9 hPa 0,0 l/m W-SW 0,00 h 0 W/m 2,7 km/h (1 Bft)
19.07.2012 02:00 15,5 C 85 % 1010,2 hPa 0,0 l/m W-SW 0,00 h 0 W/m 2,8 km/h (1 Bft)
19.07.2012 03:00 17,0 C 77 % 1009,7 hPa 0,0 l/m W-SW 0,00 h 0 W/m 8,0 km/h (2 Bft)
19.07.2012 04:00 16,3 C 82 % 1009,2 hPa 0,0 l/m W-SW 0,00 h 0 W/m 5,5 km/h (1 Bft)
19.07.2012 05:00 17,5 C 77 % 1009,0 hPa 0,0 l/m W-SW 0,00 h 6 W/m 10,9 km/h (2 Bft)
19.07.2012 06:00 17,0 C 81 % 1008,9 hPa 0,0 l/m SW 0,08 h 37 W/m 11,0 km/h (2 Bft)
19.07.2012 07:00 17,2 C 86 % 1009,0 hPa 0,0 l/m SW 0,42 h 136 W/m 10,8 km/h (2 Bft)
19.07.2012 08:00 19,8 C 72 % 1009,1 hPa 0,0 l/m W-SW 0,17 h 174 W/m 19,7 km/h (3 Bft)
19.07.2012 09:00 20,4 C 67 % 1009,2 hPa 0,0 l/m W-SW 0,08 h 177 W/m 18,0 km/h (3 Bft)
19.07.2012 10:00 21,8 C 63 % 1009,2 hPa 0,0 l/m W-SW 0,75 h 588 W/m 25,6 km/h (4 Bft)
19.07.2012 11:00 22,5 C 63 % 1009,5 hPa 0,0 l/m W 0,50 h 491 W/m 21,2 km/h (4 Bft)
19.07.2012 12:00 22,7 C 59 % 1009,7 hPa 0,0 l/m W 0,17 h 356 W/m 19,6 km/h (3 Bft)
19.07.2012 13:00 22,7 C 50 % 1010,0 hPa 0,0 l/m W 0,33 h 495 W/m 25,1 km/h (4 Bft)
19.07.2012 14:00 22,9 C 50 % 1009,9 hPa 0,0 l/m W-NW 0,67 h 665 W/m 25,2 km/h (4 Bft)
19.07.2012 15:00 23,1 C 50 % 1009,9 hPa 0,0 l/m W 0,92 h 767 W/m 31,8 km/h (5 Bft)
19.07.2012 16:00 22,6 C 53 % 1010,3 hPa 0,0 l/m W-NW 0,75 h 623 W/m 30,2 km/h (5 Bft)
19.07.2012 17:00 21,4 C 57 % 1010,5 hPa 0,0 l/m W-NW 0,25 h 256 W/m 29,9 km/h (5 Bft)
19.07.2012 18:00 20,7 C 56 % 1010,5 hPa 0,0 l/m W-NW 0,67 h 359 W/m 27,1 km/h (4 Bft)
19.07.2012 19:00 20,0 C 56 % 1011,1 hPa 0,0 l/m W 0,92 h 222 W/m 18,2 km/h (3 Bft)
19.07.2012 20:00 18,3 C 58 % 1011,5 hPa 0,0 l/m W-NW 0,08 h 31 W/m 12,5 km/h (3 Bft)
19.07.2012 21:00 16,7 C 64 % 1011,8 hPa 0,0 l/m W 0,00 h 5 W/m 6,7 km/h (2 Bft)
19.07.2012 22:00 14,9 C 74 % 1012,1 hPa 0,0 l/m W 0,00 h 0 W/m 4,3 km/h (1 Bft)
19.07.2012 23:00 14,5 C 76 % 1012,1 hPa 0,0 l/m W 0,00 h 0 W/m 6,2 km/h (2 Bft)
20.07.2012 00:00 14,6 C 77 % 1012,5 hPa 0,0 l/m W 0,00 h 0 W/m 6,7 km/h (2 Bft)
20.07.2012 01:00 13,6 C 86 % 1013,0 hPa 0,0 l/m NW 0,00 h 0 W/m 5,9 km/h (2 Bft)
20.07.2012 02:00 13,5 C 88 % 1012,9 hPa 0,0 l/m N 0,00 h 0 W/m 0,7 km/h (0 Bft)
20.07.2012 03:00 13,7 C 89 % 1012,6 hPa 0,0 l/m N 0,00 h 0 W/m 1,3 km/h (1 Bft)
20.07.2012 04:00 13,5 C 90 % 1012,4 hPa 0,0 l/m N 0,00 h 0 W/m 1,7 km/h (1 Bft)
20.07.2012 05:00 13,4 C 90 % 1012,5 hPa 0,0 l/m N 0,00 h 0 W/m 1,6 km/h (1 Bft)
20.07.2012 06:00 13,3 C 88 % 1012,8 hPa 0,2 l/m N-NW 0,00 h 8 W/m 2,7 km/h (1 Bft)
20.07.2012 07:00 12,9 C 93 % 1013,3 hPa 0,0 l/m N 0,00 h 21 W/m 2,5 km/h (1 Bft)
20.07.2012 08:00 13,7 C 92 % 1013,3 hPa 0,0 l/m N 0,17 h 166 W/m 2,3 km/h (1 Bft)
20.07.2012 09:00 15,5 C 81 % 1013,5 hPa 0,0 l/m N-NW 0,75 h 356 W/m 4,5 km/h (1 Bft)
20.07.2012 10:00 16,7 C 75 % 1013,4 hPa 0,0 l/m O 0,17 h 319 W/m 7,1 km/h (2 Bft)
20.07.2012 11:00 17,7 C 70 % 1013,3 hPa 0,0 l/m O-SO 0,17 h 349 W/m 7,4 km/h (2 Bft)
20.07.2012 12:00 18,4 C 67 % 1013,1 hPa 0,0 l/m N 0,17 h 364 W/m 7,2 km/h (2 Bft)
20.07.2012 13:00 18,2 C 66 % 1013,1 hPa 0,0 l/m N-NO 0,00 h 222 W/m 9,9 km/h (2 Bft)
20.07.2012 14:00 18,1 C 68 % 1013,5 hPa 0,0 l/m N-NO 0,17 h 304 W/m 15,3 km/h (3 Bft)
20.07.2012 15:00 17,3 C 68 % 1013,6 hPa 0,0 l/m N-NO 0,00 h 160 W/m 13,8 km/h (3 Bft)
20.07.2012 16:00 17,3 C 69 % 1013,5 hPa 0,0 l/m N-NO 0,08 h 164 W/m 11,6 km/h (2 Bft)
20.07.2012 17:00 16,7 C 73 % 1013,9 hPa 0,0 l/m N-NO 0,00 h 71 W/m 10,3 km/h (2 Bft)
20.07.2012 18:00 15,0 C 79 % 1014,3 hPa 0,8 l/m NW 0,00 h 33 W/m 10,1 km/h (2 Bft)
20.07.2012 19:00 13,0 C 90 % 1014,7 hPa 1,4 l/m W 0,00 h 20 W/m 4,4 km/h (1 Bft)
20.07.2012 20:00 12,7 C 94 % 1014,9 hPa 1,2 l/m N 0,00 h 9 W/m 1,2 km/h (1 Bft)
20.07.2012 21:00 12,6 C 96 % 1015,4 hPa 0,6 l/m W 0,00 h 0 W/m 3,1 km/h (1 Bft)
20.07.2012 22:00 12,6 C 97 % 1016,1 hPa 0,0 l/m W 0,00 h 0 W/m 2,8 km/h (1 Bft)
20.07.2012 23:00 12,4 C 97 % 1016,3 hPa 0,2 l/m W 0,00 h 0 W/m 3,3 km/h (1 Bft)
21.07.2012 00:00 12,2 C 98 % 1016,7 hPa 0,2 l/m W 0,00 h 0 W/m 5,5 km/h (1 Bft)
21.07.2012 01:00 12,2 C 98 % 1016,8 hPa 0,0 l/m W 0,00 h 0 W/m 4,1 km/h (1 Bft)
21.07.2012 02:00 12,1 C 98 % 1016,6 hPa 0,0 l/m W 0,00 h 0 W/m 3,5 km/h (1 Bft)
21.07.2012 03:00 11,9 C 98 % 1016,2 hPa 0,0 l/m N 0,00 h 0 W/m 1,7 km/h (1 Bft)
21.07.2012 04:00 11,8 C 98 % 1016,2 hPa 0,0 l/m N 0,00 h 0 W/m 0,3 km/h (0 Bft)
21.07.2012 05:00 11,7 C 98 % 1016,3 hPa 0,0 l/m N 0,00 h 6 W/m 0,4 km/h (0 Bft)
21.07.2012 06:00 11,6 C 98 % 1016,5 hPa 0,0 l/m W 0,00 h 26 W/m 2,1 km/h (1 Bft)
21.07.2012 07:00 12,0 C 98 % 1016,9 hPa 0,0 l/m N 0,00 h 63 W/m 3,6 km/h (1 Bft)
21.07.2012 08:00 12,8 C 94 % 1017,2 hPa 0,0 l/m N 0,17 h 176 W/m 4,5 km/h (1 Bft)
21.07.2012 09:00 13,7 C 89 % 1017,1 hPa 0,0 l/m N 0,00 h 176 W/m 6,7 km/h (2 Bft)
21.07.2012 10:00 14,9 C 80 % 1017,0 hPa 0,0 l/m N-NO 0,17 h 354 W/m 8,0 km/h (2 Bft)
21.07.2012 11:00 15,6 C 76 % 1017,1 hPa 0,0 l/m N 0,00 h 222 W/m 6,6 km/h (2 Bft)
21.07.2012 12:00 16,7 C 74 % 1016,8 hPa 0,0 l/m S 0,33 h 565 W/m 7,9 km/h (2 Bft)
21.07.2012 13:00 15,4 C 77 % 1017,0 hPa 4,0 l/m W 0,00 h 137 W/m 9,8 km/h (2 Bft)
21.07.2012 14:00 14,7 C 87 % 1017,5 hPa 0,0 l/m N-NW 0,42 h 505 W/m 5,2 km/h (1 Bft)
21.07.2012 15:00 16,1 C 80 % 1017,7 hPa 0,0 l/m N-NO 0,58 h 602 W/m 12,6 km/h (3 Bft)
21.07.2012 16:00 17,4 C 69 % 1017,9 hPa 0,0 l/m N-NO 0,58 h 536 W/m 13,4 km/h (3 Bft)
21.07.2012 17:00 16,9 C 66 % 1018,6 hPa 0,0 l/m N 0,08 h 124 W/m 12,5 km/h (3 Bft)
21.07.2012 18:00 14,4 C 76 % 1019,5 hPa 0,2 l/m N-NO 0,00 h 76 W/m 19,8 km/h (4 Bft)
21.07.2012 19:00 13,5 C 79 % 1020,1 hPa 0,0 l/m NO 0,00 h 35 W/m 11,3 km/h (2 Bft)
21.07.2012 20:00 12,7 C 84 % 1020,8 hPa 0,2 l/m N 0,00 h 7 W/m 1,9 km/h (1 Bft)
21.07.2012 21:00 11,9 C 92 % 1021,2 hPa 0,0 l/m N 0,00 h 0 W/m 0,7 km/h (0 Bft)
21.07.2012 22:00 11,5 C 95 % 1021,9 hPa 0,0 l/m N 0,00 h 0 W/m 1,7 km/h (1 Bft)
21.07.2012 23:00 11,2 C 96 % 1022,3 hPa 0,0 l/m N 0,00 h 0 W/m 0,9 km/h (0 Bft)
22.07.2012 00:00 11,1 C 96 % 1022,2 hPa 0,0 l/m N 0,00 h 0 W/m 0,6 km/h (0 Bft)
22.07.2012 01:00 10,9 C 96 % 1022,1 hPa 0,0 l/m N 0,00 h 0 W/m 0,5 km/h (0 Bft)
22.07.2012 02:00 11,0 C 96 % 1022,1 hPa 0,0 l/m N 0,00 h 0 W/m 0,7 km/h (0 Bft)
22.07.2012 03:00 10,9 C 94 % 1022,2 hPa 0,0 l/m NO 0,00 h 0 W/m 4,9 km/h (1 Bft)
22.07.2012 04:00 9,8 C 94 % 1022,4 hPa 0,0 l/m N-NO 0,00 h 0 W/m 5,2 km/h (1 Bft)
22.07.2012 05:00 8,8 C 95 % 1022,7 hPa 0,0 l/m N 0,00 h 6 W/m 3,1 km/h (1 Bft)
22.07.2012 06:00 8,5 C 96 % 1023,1 hPa 0,0 l/m N 0,00 h 19 W/m 1,9 km/h (1 Bft)
22.07.2012 07:00 9,4 C 96 % 1023,5 hPa 0,0 l/m N-NO 0,00 h 85 W/m 4,8 km/h (1 Bft)
22.07.2012 08:00 11,0 C 91 % 1024,0 hPa 0,0 l/m NO 0,08 h 168 W/m 8,0 km/h (2 Bft)
22.07.2012 09:00 12,5 C 85 % 1024,1 hPa 0,0 l/m O-NO 0,17 h 233 W/m 12,9 km/h (3 Bft)
22.07.2012 10:00 13,8 C 79 % 1024,3 hPa 0,0 l/m NO 0,25 h 313 W/m 12,6 km/h (3 Bft)
22.07.2012 11:00 14,9 C 73 % 1024,3 hPa 0,0 l/m O-NO 0,00 h 291 W/m 15,2 km/h (3 Bft)
22.07.2012 12:00 16,0 C 63 % 1024,4 hPa 0,0 l/m O 0,75 h 726 W/m 19,4 km/h (3 Bft)
22.07.2012 13:00 17,3 C 55 % 1024,4 hPa 0,0 l/m NO 0,75 h 817 W/m 19,6 km/h (3 Bft)
22.07.2012 14:00 18,0 C 50 % 1024,1 hPa 0,0 l/m O-NO 0,58 h 645 W/m 19,3 km/h (3 Bft)
22.07.2012 15:00 17,8 C 50 % 1023,9 hPa 0,0 l/m N-NO 0,50 h 473 W/m 17,4 km/h (3 Bft)
22.07.2012 16:00 18,3 C 46 % 1023,9 hPa 0,0 l/m NO 0,58 h 525 W/m 16,6 km/h (3 Bft)
22.07.2012 17:00 18,5 C 44 % 1023,9 hPa 0,0 l/m O-NO 0,67 h 470 W/m 17,4 km/h (3 Bft)
22.07.2012 18:00 18,1 C 45 % 1024,0 hPa 0,0 l/m O-NO 0,75 h 356 W/m 18,5 km/h (3 Bft)
22.07.2012 19:00 17,3 C 48 % 1024,3 hPa 0,0 l/m O-NO 0,58 h 198 W/m 15,7 km/h (3 Bft)
22.07.2012 20:00 15,6 C 55 % 1024,5 hPa 0,0 l/m O-NO 0,17 h 29 W/m 8,3 km/h (2 Bft)
22.07.2012 21:00 14,0 C 62 % 1024,8 hPa 0,0 l/m O-NO 0,00 h 6 W/m 6,7 km/h (2 Bft)
22.07.2012 22:00 12,7 C 69 % 1025,0 hPa 0,0 l/m NO 0,00 h 0 W/m 4,1 km/h (1 Bft)
22.07.2012 23:00 10,8 C 79 % 1025,0 hPa 0,0 l/m N 0,00 h 0 W/m 0,8 km/h (0 Bft)
Min-Datum _ 22.07.12 18.07.12 19.07.12 - - - - 17.07.12
_ Min-Zeit 06:10 18:00 05:55 - - - - 22:15
Minimum _ 8,4 C 38 % 1008,9 hPa - - - - 0,0 km/h (0 Bft)
Max-Datum _ 18.07.12 21.07.12 16.07.12 21.07.12 - 16.07.12 16.07.12 19.07.12
_ Max-Zeit 17:05 00:30 12:40 13:40 - 10:10 13:00 15:55
Maximum _ 25,9 C 100 % 1025,8 hPa 4,0 l/m - 0,08 h 1148 W/m 41,8 km/h
W-NW (6 Bft)
Durchschnitt _ 16,0 C 74 % 1018,6 hPa #9,0 l/m W-SW #34:45 h 284 W/m 11,5 km/h (2 Bft)